sensor_id;sensor_type;location;lat;lon;timestamp;temperature;humidity
25046;DHT22;13044;49.304;12.840;2023-02-15T00:00:06;1.40;99.90
25046;DHT22;13044;49.304;12.840;2023-02-15T00:02:38;1.30;99.90
25046;DHT22;13044;49.304;12.840;2023-02-15T00:05:07;1.20;99.90
25046;DHT22;13044;49.304;12.840;2023-02-15T00:07:35;1.20;99.90
25046;DHT22;13044;49.304;12.840;2023-02-15T00:10:03;1.20;99.90
25046;DHT22;13044;49.304;12.840;2023-02-15T00:12:30;1.20;99.90
25046;DHT22;13044;49.304;12.840;2023-02-15T00:14:58;1.20;99.90
25046;DHT22;13044;49.304;12.840;2023-02-15T00:17:27;1.30;99.90
25046;DHT22;13044;49.304;12.840;2023-02-15T00:19:55;1.30;99.90
25046;DHT22;13044;49.304;12.840;2023-02-15T00:22:22;1.30;99.90
25046;DHT22;13044;49.304;12.840;2023-02-15T00:24:49;1.40;99.90
25046;DHT22;13044;49.304;12.840;2023-02-15T00:27:16;1.50;99.90
25046;DHT22;13044;49.304;12.840;2023-02-15T00:29:43;1.50;99.90
25046;DHT22;13044;49.304;12.840;2023-02-15T00:32:10;1.60;99.90
25046;DHT22;13044;49.304;12.840;2023-02-15T00:34:37;1.50;99.90
25046;DHT22;13044;49.304;12.840;2023-02-15T00:37:03;1.50;99.90
25046;DHT22;13044;49.304;12.840;2023-02-15T00:39:32;1.50;99.90
25046;DHT22;13044;49.304;12.840;2023-02-15T00:41:59;1.50;99.90
25046;DHT22;13044;49.304;12.840;2023-02-15T00:44:28;1.40;99.90
25046;DHT22;13044;49.304;12.840;2023-02-15T00:46:54;1.40;99.90
25046;DHT22;13044;49.304;12.840;2023-02-15T00:49:21;1.40;99.90
25046;DHT22;13044;49.304;12.840;2023-02-15T00:51:48;1.40;99.90
25046;DHT22;13044;49.304;12.840;2023-02-15T00:54:15;1.40;99.90
25046;DHT22;13044;49.304;12.840;2023-02-15T00:56:43;1.40;99.90
25046;DHT22;13044;49.304;12.840;2023-02-15T00:59:10;1.40;99.90
25046;DHT22;13044;49.304;12.840;2023-02-15T01:01:38;1.40;99.90
25046;DHT22;13044;49.304;12.840;2023-02-15T01:04:05;1.40;99.90
25046;DHT22;13044;49.304;12.840;2023-02-15T01:06:33;1.40;99.90
25046;DHT22;13044;49.304;12.840;2023-02-15T01:09:00;1.40;99.90
25046;DHT22;13044;49.304;12.840;2023-02-15T01:11:28;1.40;99.90
25046;DHT22;13044;49.304;12.840;2023-02-15T01:13:57;1.40;99.90
25046;DHT22;13044;49.304;12.840;2023-02-15T01:16:26;1.50;99.90
25046;DHT22;13044;49.304;12.840;2023-02-15T01:18:54;1.40;99.90
25046;DHT22;13044;49.304;12.840;2023-02-15T01:21:23;1.40;99.90
25046;DHT22;13044;49.304;12.840;2023-02-15T01:23:51;1.40;99.90
25046;DHT22;13044;49.304;12.840;2023-02-15T01:26:18;1.40;99.90
25046;DHT22;13044;49.304;12.840;2023-02-15T01:28:48;1.40;99.90
25046;DHT22;13044;49.304;12.840;2023-02-15T01:31:16;1.40;99.90
25046;DHT22;13044;49.304;12.840;2023-02-15T01:33:45;1.50;99.90
25046;DHT22;13044;49.304;12.840;2023-02-15T01:36:13;1.50;99.90
25046;DHT22;13044;49.304;12.840;2023-02-15T01:38:41;1.40;99.90
25046;DHT22;13044;49.304;12.840;2023-02-15T01:41:08;1.40;99.90
25046;DHT22;13044;49.304;12.840;2023-02-15T01:43:58;1.40;99.90
25046;DHT22;13044;49.304;12.840;2023-02-15T01:46:40;1.40;99.90
25046;DHT22;13044;49.304;12.840;2023-02-15T01:49:19;1.40;99.90
25046;DHT22;13044;49.304;12.840;2023-02-15T01:51:48;1.40;99.90
25046;DHT22;13044;49.304;12.840;2023-02-15T01:54:22;1.40;99.90
25046;DHT22;13044;49.304;12.840;2023-02-15T01:56:52;1.40;99.90
25046;DHT22;13044;49.304;12.840;2023-02-15T01:59:23;1.30;99.90
25046;DHT22;13044;49.304;12.840;2023-02-15T02:01:56;1.30;99.90
25046;DHT22;13044;49.304;12.840;2023-02-15T02:04:48;1.30;99.90
25046;DHT22;13044;49.304;12.840;2023-02-15T02:07:26;1.30;99.90
25046;DHT22;13044;49.304;12.840;2023-02-15T02:09:54;1.30;99.90
25046;DHT22;13044;49.304;12.840;2023-02-15T02:12:22;1.30;99.90
25046;DHT22;13044;49.304;12.840;2023-02-15T02:14:50;1.30;99.90
25046;DHT22;13044;49.304;12.840;2023-02-15T02:35:05;1.30;99.90
25046;DHT22;13044;49.304;12.840;2023-02-15T02:38:18;1.10;99.90
25046;DHT22;13044;49.304;12.840;2023-02-15T02:41:25;1.10;99.90
25046;DHT22;13044;49.304;12.840;2023-02-15T02:46:33;1.10;99.90
25046;DHT22;13044;49.304;12.840;2023-02-15T02:49:04;1.20;99.90
25046;DHT22;13044;49.304;12.840;2023-02-15T02:51:31;1.20;99.90
25046;DHT22;13044;49.304;12.840;2023-02-15T02:54:00;1.20;99.90
25046;DHT22;13044;49.304;12.840;2023-02-15T02:59:19;1.20;99.90
25046;DHT22;13044;49.304;12.840;2023-02-15T03:01:55;1.20;99.90
25046;DHT22;13044;49.304;12.840;2023-02-15T03:04:33;1.10;99.90
25046;DHT22;13044;49.304;12.840;2023-02-15T03:07:09;1.10;99.90
25046;DHT22;13044;49.304;12.840;2023-02-15T03:09:46;1.10;99.90
25046;DHT22;13044;49.304;12.840;2023-02-15T03:12:23;1.10;99.90
25046;DHT22;13044;49.304;12.840;2023-02-15T03:15:15;1.10;99.90
25046;DHT22;13044;49.304;12.840;2023-02-15T03:17:55;1.10;99.90
25046;DHT22;13044;49.304;12.840;2023-02-15T03:20:30;1.10;99.90
25046;DHT22;13044;49.304;12.840;2023-02-15T03:23:10;1.00;99.90
25046;DHT22;13044;49.304;12.840;2023-02-15T03:25:42;1.00;99.90
25046;DHT22;13044;49.304;12.840;2023-02-15T03:28:20;0.90;99.90
25046;DHT22;13044;49.304;12.840;2023-02-15T03:30:54;0.80;99.90
25046;DHT22;13044;49.304;12.840;2023-02-15T03:33:23;0.80;99.90
25046;DHT22;13044;49.304;12.840;2023-02-15T03:36:00;0.80;99.90
25046;DHT22;13044;49.304;12.840;2023-02-15T03:39:00;0.90;99.90
25046;DHT22;13044;49.304;12.840;2023-02-15T03:41:42;0.80;99.90
25046;DHT22;13044;49.304;12.840;2023-02-15T03:44:37;0.90;99.90
25046;DHT22;13044;49.304;12.840;2023-02-15T03:47:17;0.90;99.90
25046;DHT22;13044;49.304;12.840;2023-02-15T03:49:49;0.80;99.90
25046;DHT22;13044;49.304;12.840;2023-02-15T03:52:20;0.80;99.90
25046;DHT22;13044;49.304;12.840;2023-02-15T03:54:48;0.70;99.90
25046;DHT22;13044;49.304;12.840;2023-02-15T03:57:28;0.70;99.90
25046;DHT22;13044;49.304;12.840;2023-02-15T04:00:17;0.70;99.90
25046;DHT22;13044;49.304;12.840;2023-02-15T04:06:07;0.70;99.90
25046;DHT22;13044;49.304;12.840;2023-02-15T04:08:34;0.60;99.90
25046;DHT22;13044;49.304;12.840;2023-02-15T04:11:19;0.60;99.90
25046;DHT22;13044;49.304;12.840;2023-02-15T04:13:46;0.70;99.90
25046;DHT22;13044;49.304;12.840;2023-02-15T04:16:13;0.70;99.90
25046;DHT22;13044;49.304;12.840;2023-02-15T04:18:42;0.70;99.90
25046;DHT22;13044;49.304;12.840;2023-02-15T04:21:30;0.80;99.90
25046;DHT22;13044;49.304;12.840;2023-02-15T04:24:16;0.80;99.90
25046;DHT22;13044;49.304;12.840;2023-02-15T04:27:02;0.80;99.90
25046;DHT22;13044;49.304;12.840;2023-02-15T04:29:30;0.70;99.90
25046;DHT22;13044;49.304;12.840;2023-02-15T04:32:01;0.80;99.90
25046;DHT22;13044;49.304;12.840;2023-02-15T04:34:29;0.80;99.90
25046;DHT22;13044;49.304;12.840;2023-02-15T04:36:56;0.80;99.90
25046;DHT22;13044;49.304;12.840;2023-02-15T04:39:23;0.80;99.90
25046;DHT22;13044;49.304;12.840;2023-02-15T04:41:50;0.80;99.90
25046;DHT22;13044;49.304;12.840;2023-02-15T04:44:17;0.90;99.90
25046;DHT22;13044;49.304;12.840;2023-02-15T04:46:44;0.90;99.90
25046;DHT22;13044;49.304;12.840;2023-02-15T04:49:11;0.90;99.90
25046;DHT22;13044;49.304;12.840;2023-02-15T04:51:38;0.90;99.90
25046;DHT22;13044;49.304;12.840;2023-02-15T04:54:05;0.90;99.90
25046;DHT22;13044;49.304;12.840;2023-02-15T04:56:32;0.90;99.90
25046;DHT22;13044;49.304;12.840;2023-02-15T04:59:01;0.90;99.90
25046;DHT22;13044;49.304;12.840;2023-02-15T05:01:28;0.90;99.90
25046;DHT22;13044;49.304;12.840;2023-02-15T05:03:55;0.90;99.90
25046;DHT22;13044;49.304;12.840;2023-02-15T05:06:22;0.90;99.90
25046;DHT22;13044;49.304;12.840;2023-02-15T05:08:49;0.90;99.90
25046;DHT22;13044;49.304;12.840;2023-02-15T05:11:16;0.90;99.90
25046;DHT22;13044;49.304;12.840;2023-02-15T05:13:43;0.80;99.90
25046;DHT22;13044;49.304;12.840;2023-02-15T05:16:10;0.90;99.90
25046;DHT22;13044;49.304;12.840;2023-02-15T05:18:37;0.90;99.90
25046;DHT22;13044;49.304;12.840;2023-02-15T05:23:32;0.80;99.90
25046;DHT22;13044;49.304;12.840;2023-02-15T05:25:59;0.90;99.90
25046;DHT22;13044;49.304;12.840;2023-02-15T05:28:44;0.90;99.90
25046;DHT22;13044;49.304;12.840;2023-02-15T05:31:13;0.90;99.90
25046;DHT22;13044;49.304;12.840;2023-02-15T05:33:41;0.90;99.90
25046;DHT22;13044;49.304;12.840;2023-02-15T05:36:09;0.90;99.90
25046;DHT22;13044;49.304;12.840;2023-02-15T05:38:37;0.90;99.90
25046;DHT22;13044;49.304;12.840;2023-02-15T05:41:09;0.80;99.90
25046;DHT22;13044;49.304;12.840;2023-02-15T05:43:38;0.80;99.90
25046;DHT22;13044;49.304;12.840;2023-02-15T05:46:05;0.80;99.90
25046;DHT22;13044;49.304;12.840;2023-02-15T05:48:33;0.80;99.90
25046;DHT22;13044;49.304;12.840;2023-02-15T05:51:05;0.80;99.90
25046;DHT22;13044;49.304;12.840;2023-02-15T05:53:36;0.70;99.90
25046;DHT22;13044;49.304;12.840;2023-02-15T05:56:05;0.60;99.90
25046;DHT22;13044;49.304;12.840;2023-02-15T05:58:35;0.60;99.90
25046;DHT22;13044;49.304;12.840;2023-02-15T06:01:11;0.70;99.90
25046;DHT22;13044;49.304;12.840;2023-02-15T06:03:40;0.70;99.90
25046;DHT22;13044;49.304;12.840;2023-02-15T06:06:07;0.60;99.90
25046;DHT22;13044;49.304;12.840;2023-02-15T06:08:36;0.50;99.90
25046;DHT22;13044;49.304;12.840;2023-02-15T06:11:04;0.40;99.90
25046;DHT22;13044;49.304;12.840;2023-02-15T06:13:33;0.40;99.90
25046;DHT22;13044;49.304;12.840;2023-02-15T06:16:04;0.30;99.90
25046;DHT22;13044;49.304;12.840;2023-02-15T06:18:32;0.20;99.90
25046;DHT22;13044;49.304;12.840;2023-02-15T06:20:59;0.10;99.90
25046;DHT22;13044;49.304;12.840;2023-02-15T06:23:26;0.00;99.90
25046;DHT22;13044;49.304;12.840;2023-02-15T06:25:54;0.00;99.90
25046;DHT22;13044;49.304;12.840;2023-02-15T06:28:21;0.00;99.90
25046;DHT22;13044;49.304;12.840;2023-02-15T06:30:48;0.00;99.90
25046;DHT22;13044;49.304;12.840;2023-02-15T06:33:16;-0.10;99.90
25046;DHT22;13044;49.304;12.840;2023-02-15T06:35:44;-0.10;99.90
25046;DHT22;13044;49.304;12.840;2023-02-15T06:38:14;-0.10;99.90
25046;DHT22;13044;49.304;12.840;2023-02-15T06:40:41;-0.10;99.90
25046;DHT22;13044;49.304;12.840;2023-02-15T06:43:09;-0.10;99.90
25046;DHT22;13044;49.304;12.840;2023-02-15T06:45:35;0.00;99.90
25046;DHT22;13044;49.304;12.840;2023-02-15T06:48:04;0.00;99.90
25046;DHT22;13044;49.304;12.840;2023-02-15T06:50:33;0.00;99.90
25046;DHT22;13044;49.304;12.840;2023-02-15T06:53:01;-0.10;99.90
25046;DHT22;13044;49.304;12.840;2023-02-15T06:55:28;-0.20;99.90
25046;DHT22;13044;49.304;12.840;2023-02-15T06:57:56;-0.10;99.90
25046;DHT22;13044;49.304;12.840;2023-02-15T07:00:23;-0.10;99.90
25046;DHT22;13044;49.304;12.840;2023-02-15T07:02:54;0.00;99.90
25046;DHT22;13044;49.304;12.840;2023-02-15T07:05:23;0.00;99.90
25046;DHT22;13044;49.304;12.840;2023-02-15T07:07:58;0.00;99.90
25046;DHT22;13044;49.304;12.840;2023-02-15T07:10:27;0.10;99.90
25046;DHT22;13044;49.304;12.840;2023-02-15T07:12:54;0.10;99.90
25046;DHT22;13044;49.304;12.840;2023-02-15T07:15:22;0.00;99.90
25046;DHT22;13044;49.304;12.840;2023-02-15T07:17:49;0.00;99.90
25046;DHT22;13044;49.304;12.840;2023-02-15T07:20:19;0.10;99.90
25046;DHT22;13044;49.304;12.840;2023-02-15T07:22:49;0.20;99.90
25046;DHT22;13044;49.304;12.840;2023-02-15T07:25:16;0.30;99.90
25046;DHT22;13044;49.304;12.840;2023-02-15T07:27:46;0.20;99.90
25046;DHT22;13044;49.304;12.840;2023-02-15T07:30:15;0.10;99.90
25046;DHT22;13044;49.304;12.840;2023-02-15T07:32:44;0.00;99.90
25046;DHT22;13044;49.304;12.840;2023-02-15T07:35:31;0.00;99.90
25046;DHT22;13044;49.304;12.840;2023-02-15T07:38:00;-0.10;99.90
25046;DHT22;13044;49.304;12.840;2023-02-15T07:40:27;0.10;99.90
25046;DHT22;13044;49.304;12.840;2023-02-15T07:42:58;0.10;99.90
25046;DHT22;13044;49.304;12.840;2023-02-15T07:45:26;0.00;99.90
25046;DHT22;13044;49.304;12.840;2023-02-15T07:47:53;-0.10;99.90
25046;DHT22;13044;49.304;12.840;2023-02-15T07:50:21;-0.20;99.90
25046;DHT22;13044;49.304;12.840;2023-02-15T07:52:49;-0.30;99.90
25046;DHT22;13044;49.304;12.840;2023-02-15T07:55:16;-0.30;99.90
25046;DHT22;13044;49.304;12.840;2023-02-15T07:57:44;-0.30;99.90
25046;DHT22;13044;49.304;12.840;2023-02-15T08:00:13;-0.50;99.90
25046;DHT22;13044;49.304;12.840;2023-02-15T08:02:49;-0.40;99.90
25046;DHT22;13044;49.304;12.840;2023-02-15T08:05:42;-0.30;99.90
25046;DHT22;13044;49.304;12.840;2023-02-15T08:08:11;-0.20;99.90
25046;DHT22;13044;49.304;12.840;2023-02-15T08:11:42;-0.10;99.90
25046;DHT22;13044;49.304;12.840;2023-02-15T08:14:09;-0.10;99.90
25046;DHT22;13044;49.304;12.840;2023-02-15T08:16:49;0.00;99.90
25046;DHT22;13044;49.304;12.840;2023-02-15T08:19:25;0.10;99.90
25046;DHT22;13044;49.304;12.840;2023-02-15T08:24:32;0.20;99.90
25046;DHT22;13044;49.304;12.840;2023-02-15T08:27:00;0.10;99.90
25046;DHT22;13044;49.304;12.840;2023-02-15T08:29:33;0.00;99.90
25046;DHT22;13044;49.304;12.840;2023-02-15T08:32:05;-0.10;99.90
25046;DHT22;13044;49.304;12.840;2023-02-15T08:34:36;-0.20;99.90
25046;DHT22;13044;49.304;12.840;2023-02-15T08:37:07;-0.10;99.90
25046;DHT22;13044;49.304;12.840;2023-02-15T08:39:34;-0.10;99.90
25046;DHT22;13044;49.304;12.840;2023-02-15T08:42:01;-0.10;99.90
25046;DHT22;13044;49.304;12.840;2023-02-15T08:44:29;0.00;99.90
25046;DHT22;13044;49.304;12.840;2023-02-15T08:46:56;0.00;99.90
25046;DHT22;13044;49.304;12.840;2023-02-15T08:49:29;0.00;99.90
25046;DHT22;13044;49.304;12.840;2023-02-15T08:51:57;-0.10;99.90
25046;DHT22;13044;49.304;12.840;2023-02-15T08:54:25;-0.20;99.90
25046;DHT22;13044;49.304;12.840;2023-02-15T08:56:52;-0.20;99.90
25046;DHT22;13044;49.304;12.840;2023-02-15T08:59:22;-0.10;99.90
25046;DHT22;13044;49.304;12.840;2023-02-15T09:01:51;-0.20;99.90
25046;DHT22;13044;49.304;12.840;2023-02-15T09:04:21;0.00;99.90
25046;DHT22;13044;49.304;12.840;2023-02-15T09:06:50;0.00;99.90
25046;DHT22;13044;49.304;12.840;2023-02-15T09:09:18;0.00;99.90
25046;DHT22;13044;49.304;12.840;2023-02-15T09:11:51;0.00;99.90
25046;DHT22;13044;49.304;12.840;2023-02-15T09:14:26;0.10;99.90
25046;DHT22;13044;49.304;12.840;2023-02-15T09:16:54;0.00;99.90
25046;DHT22;13044;49.304;12.840;2023-02-15T09:19:24;0.00;99.90
25046;DHT22;13044;49.304;12.840;2023-02-15T09:21:52;0.00;99.90
25046;DHT22;13044;49.304;12.840;2023-02-15T09:24:19;0.00;99.90
25046;DHT22;13044;49.304;12.840;2023-02-15T09:26:49;0.10;99.90
25046;DHT22;13044;49.304;12.840;2023-02-15T09:29:18;0.10;99.90
25046;DHT22;13044;49.304;12.840;2023-02-15T09:31:48;0.10;99.90
25046;DHT22;13044;49.304;12.840;2023-02-15T09:34:20;0.20;99.90
25046;DHT22;13044;49.304;12.840;2023-02-15T09:36:49;0.30;99.90
25046;DHT22;13044;49.304;12.840;2023-02-15T09:39:19;0.30;99.90
25046;DHT22;13044;49.304;12.840;2023-02-15T09:47:49;0.30;99.90
25046;DHT22;13044;49.304;12.840;2023-02-15T09:54:09;0.20;99.90
25046;DHT22;13044;49.304;12.840;2023-02-15T09:56:38;0.30;99.90
25046;DHT22;13044;49.304;12.840;2023-02-15T10:02:27;0.40;99.90
25046;DHT22;13044;49.304;12.840;2023-02-15T10:08:40;0.70;99.90
25046;DHT22;13044;49.304;12.840;2023-02-15T10:11:49;0.70;99.90
25046;DHT22;13044;49.304;12.840;2023-02-15T10:18:04;0.90;99.90
25046;DHT22;13044;49.304;12.840;2023-02-15T10:26:48;1.20;99.90
25046;DHT22;13044;49.304;12.840;2023-02-15T10:29:27;1.20;99.90
25046;DHT22;13044;49.304;12.840;2023-02-15T10:52:44;1.30;99.90
25046;DHT22;13044;49.304;12.840;2023-02-15T11:04:43;1.60;99.90
25046;DHT22;13044;49.304;12.840;2023-02-15T11:07:32;1.50;99.90
25046;DHT22;13044;49.304;12.840;2023-02-15T11:12:50;1.50;99.90
25046;DHT22;13044;49.304;12.840;2023-02-15T11:15:30;1.60;99.90
25046;DHT22;13044;49.304;12.840;2023-02-15T11:23:32;1.60;99.90
25046;DHT22;13044;49.304;12.840;2023-02-15T11:26:04;1.70;99.90
25046;DHT22;13044;49.304;12.840;2023-02-15T11:28:45;1.80;99.90
25046;DHT22;13044;49.304;12.840;2023-02-15T11:31:21;1.80;99.90
25046;DHT22;13044;49.304;12.840;2023-02-15T11:34:00;2.00;99.90
25046;DHT22;13044;49.304;12.840;2023-02-15T11:36:38;2.00;99.90
25046;DHT22;13044;49.304;12.840;2023-02-15T11:39:13;2.10;99.90
25046;DHT22;13044;49.304;12.840;2023-02-15T11:41:49;2.10;99.90
25046;DHT22;13044;49.304;12.840;2023-02-15T11:46:59;2.30;99.90
25046;DHT22;13044;49.304;12.840;2023-02-15T11:49:33;2.50;99.90
25046;DHT22;13044;49.304;12.840;2023-02-15T11:52:04;2.40;99.90
25046;DHT22;13044;49.304;12.840;2023-02-15T11:54:35;2.50;99.90
25046;DHT22;13044;49.304;12.840;2023-02-15T11:57:28;2.60;99.90
25046;DHT22;13044;49.304;12.840;2023-02-15T12:02:49;2.50;99.90
25046;DHT22;13044;49.304;12.840;2023-02-15T12:05:22;2.30;99.90
25046;DHT22;13044;49.304;12.840;2023-02-15T12:08:19;2.10;99.90
25046;DHT22;13044;49.304;12.840;2023-02-15T12:13:26;2.10;99.90
25046;DHT22;13044;49.304;12.840;2023-02-15T12:15:55;2.10;99.90
25046;DHT22;13044;49.304;12.840;2023-02-15T12:18:49;2.20;99.90
25046;DHT22;13044;49.304;12.840;2023-02-15T12:21:34;2.30;99.90
25046;DHT22;13044;49.304;12.840;2023-02-15T12:26:42;2.10;99.90
25046;DHT22;13044;49.304;12.840;2023-02-15T12:29:16;2.10;99.90
25046;DHT22;13044;49.304;12.840;2023-02-15T12:31:45;2.10;99.90
25046;DHT22;13044;49.304;12.840;2023-02-15T12:37:01;2.10;99.90
25046;DHT22;13044;49.304;12.840;2023-02-15T12:39:31;2.20;99.90
25046;DHT22;13044;49.304;12.840;2023-02-15T12:42:00;2.30;99.90
25046;DHT22;13044;49.304;12.840;2023-02-15T12:44:34;2.20;99.90
25046;DHT22;13044;49.304;12.840;2023-02-15T12:49:36;2.00;99.90
25046;DHT22;13044;49.304;12.840;2023-02-15T12:54:44;2.00;99.90
25046;DHT22;13044;49.304;12.840;2023-02-15T12:57:35;2.10;99.90
25046;DHT22;13044;49.304;12.840;2023-02-15T13:00:06;2.10;99.90
25046;DHT22;13044;49.304;12.840;2023-02-15T13:02:56;2.20;99.90
25046;DHT22;13044;49.304;12.840;2023-02-15T13:05:42;2.10;99.90
25046;DHT22;13044;49.304;12.840;2023-02-15T13:08:14;2.20;99.90
25046;DHT22;13044;49.304;12.840;2023-02-15T13:13:53;2.10;99.90
25046;DHT22;13044;49.304;12.840;2023-02-15T13:16:29;2.10;99.90
25046;DHT22;13044;49.304;12.840;2023-02-15T13:19:03;2.00;99.90
25046;DHT22;13044;49.304;12.840;2023-02-15T13:21:37;2.10;99.90
25046;DHT22;13044;49.304;12.840;2023-02-15T13:24:17;2.20;99.90
25046;DHT22;13044;49.304;12.840;2023-02-15T13:26:49;2.30;99.90
25046;DHT22;13044;49.304;12.840;2023-02-15T13:29:28;2.50;99.90
25046;DHT22;13044;49.304;12.840;2023-02-15T13:34:54;2.80;99.90
25046;DHT22;13044;49.304;12.840;2023-02-15T13:42:45;2.90;99.90
25046;DHT22;13044;49.304;12.840;2023-02-15T13:57:05;3.50;99.90
25046;DHT22;13044;49.304;12.840;2023-02-15T14:00:01;3.40;99.90
25046;DHT22;13044;49.304;12.840;2023-02-15T14:08:32;3.40;99.90
25046;DHT22;13044;49.304;12.840;2023-02-15T14:11:16;3.30;99.90
25046;DHT22;13044;49.304;12.840;2023-02-15T14:23:33;3.10;99.90
25046;DHT22;13044;49.304;12.840;2023-02-15T14:32:33;3.10;99.90
25046;DHT22;13044;49.304;12.840;2023-02-15T14:35:05;3.00;99.90
25046;DHT22;13044;49.304;12.840;2023-02-15T14:37:54;3.00;99.90
25046;DHT22;13044;49.304;12.840;2023-02-15T14:49:27;2.90;99.90
25046;DHT22;13044;49.304;12.840;2023-02-15T15:02:29;2.70;99.90
25046;DHT22;13044;49.304;12.840;2023-02-15T15:05:07;2.70;99.90
25046;DHT22;13044;49.304;12.840;2023-02-15T15:07:45;2.80;99.90
25046;DHT22;13044;49.304;12.840;2023-02-15T15:12:51;2.70;99.90
25046;DHT22;13044;49.304;12.840;2023-02-15T15:18:06;2.60;99.90
25046;DHT22;13044;49.304;12.840;2023-02-15T15:34:18;2.30;99.90
25046;DHT22;13044;49.304;12.840;2023-02-15T15:37:10;2.40;99.90
25046;DHT22;13044;49.304;12.840;2023-02-15T15:49:26;2.40;99.90
25046;DHT22;13044;49.304;12.840;2023-02-15T15:52:00;2.40;99.90
25046;DHT22;13044;49.304;12.840;2023-02-15T15:54:30;2.30;99.90
25046;DHT22;13044;49.304;12.840;2023-02-15T15:57:02;2.20;99.90
25046;DHT22;13044;49.304;12.840;2023-02-15T15:59:32;2.20;99.90
25046;DHT22;13044;49.304;12.840;2023-02-15T16:02:05;2.20;99.90
25046;DHT22;13044;49.304;12.840;2023-02-15T16:04:34;2.10;99.90
25046;DHT22;13044;49.304;12.840;2023-02-15T16:09:55;2.30;99.90
25046;DHT22;13044;49.304;12.840;2023-02-15T16:12:34;2.30;99.90
25046;DHT22;13044;49.304;12.840;2023-02-15T16:15:14;2.20;99.90
25046;DHT22;13044;49.304;12.840;2023-02-15T16:17:44;2.10;99.90
25046;DHT22;13044;49.304;12.840;2023-02-15T16:20:24;1.90;99.90
25046;DHT22;13044;49.304;12.840;2023-02-15T16:23:45;1.90;99.90
25046;DHT22;13044;49.304;12.840;2023-02-15T16:29:15;1.80;99.90
25046;DHT22;13044;49.304;12.840;2023-02-15T16:31:56;1.80;99.90
25046;DHT22;13044;49.304;12.840;2023-02-15T16:34:57;1.70;99.90
25046;DHT22;13044;49.304;12.840;2023-02-15T16:37:28;1.60;99.90
25046;DHT22;13044;49.304;12.840;2023-02-15T16:39:59;1.60;99.90
25046;DHT22;13044;49.304;12.840;2023-02-15T16:42:26;1.60;99.90
25046;DHT22;13044;49.304;12.840;2023-02-15T16:45:06;1.60;99.90
25046;DHT22;13044;49.304;12.840;2023-02-15T16:47:44;1.60;99.90
25046;DHT22;13044;49.304;12.840;2023-02-15T16:52:54;1.50;99.90
25046;DHT22;13044;49.304;12.840;2023-02-15T16:55:23;1.50;99.90
25046;DHT22;13044;49.304;12.840;2023-02-15T16:57:55;1.50;99.90
25046;DHT22;13044;49.304;12.840;2023-02-15T17:00:26;1.50;99.90
25046;DHT22;13044;49.304;12.840;2023-02-15T17:03:20;1.50;99.90
25046;DHT22;13044;49.304;12.840;2023-02-15T17:05:58;1.50;99.90
25046;DHT22;13044;49.304;12.840;2023-02-15T17:08:34;1.50;99.90
25046;DHT22;13044;49.304;12.840;2023-02-15T17:11:20;1.50;99.90
25046;DHT22;13044;49.304;12.840;2023-02-15T17:16:36;1.60;99.90
25046;DHT22;13044;49.304;12.840;2023-02-15T17:19:19;1.60;99.90
25046;DHT22;13044;49.304;12.840;2023-02-15T17:21:56;1.50;99.90
25046;DHT22;13044;49.304;12.840;2023-02-15T17:27:02;1.50;99.90
25046;DHT22;13044;49.304;12.840;2023-02-15T17:29:40;1.50;99.90
25046;DHT22;13044;49.304;12.840;2023-02-15T17:32:20;1.60;99.90
25046;DHT22;13044;49.304;12.840;2023-02-15T17:37:43;1.60;99.90
25046;DHT22;13044;49.304;12.840;2023-02-15T17:40:24;1.60;99.90
25046;DHT22;13044;49.304;12.840;2023-02-15T17:42:53;1.50;99.90
25046;DHT22;13044;49.304;12.840;2023-02-15T17:45:22;1.50;99.90
25046;DHT22;13044;49.304;12.840;2023-02-15T17:47:53;1.50;99.90
25046;DHT22;13044;49.304;12.840;2023-02-15T17:50:23;1.40;99.90
25046;DHT22;13044;49.304;12.840;2023-02-15T17:52:53;1.40;99.90
25046;DHT22;13044;49.304;12.840;2023-02-15T17:55:23;1.30;99.90
25046;DHT22;13044;49.304;12.840;2023-02-15T17:58:11;1.30;99.90
25046;DHT22;13044;49.304;12.840;2023-02-15T18:00:49;1.30;99.90
25046;DHT22;13044;49.304;12.840;2023-02-15T18:03:51;1.30;99.90
25046;DHT22;13044;49.304;12.840;2023-02-15T18:06:40;1.30;99.90
25046;DHT22;13044;49.304;12.840;2023-02-15T18:09:26;1.30;99.90
25046;DHT22;13044;49.304;12.840;2023-02-15T18:14:50;1.40;99.90
25046;DHT22;13044;49.304;12.840;2023-02-15T18:17:18;1.30;99.90
25046;DHT22;13044;49.304;12.840;2023-02-15T18:19:45;1.30;99.90
25046;DHT22;13044;49.304;12.840;2023-02-15T18:22:16;1.20;99.90
25046;DHT22;13044;49.304;12.840;2023-02-15T18:24:47;1.20;99.90
25046;DHT22;13044;49.304;12.840;2023-02-15T18:27:15;1.20;99.90
25046;DHT22;13044;49.304;12.840;2023-02-15T18:29:42;1.20;99.90
25046;DHT22;13044;49.304;12.840;2023-02-15T18:32:15;1.20;99.90
25046;DHT22;13044;49.304;12.840;2023-02-15T18:34:50;1.10;99.90
25046;DHT22;13044;49.304;12.840;2023-02-15T18:37:20;1.10;99.90
25046;DHT22;13044;49.304;12.840;2023-02-15T18:39:50;1.10;99.90
25046;DHT22;13044;49.304;12.840;2023-02-15T18:42:28;1.10;99.90
25046;DHT22;13044;49.304;12.840;2023-02-15T18:45:23;1.10;99.90
25046;DHT22;13044;49.304;12.840;2023-02-15T18:47:54;1.10;99.90
25046;DHT22;13044;49.304;12.840;2023-02-15T18:50:32;1.10;99.90
25046;DHT22;13044;49.304;12.840;2023-02-15T18:53:06;1.00;99.90
25046;DHT22;13044;49.304;12.840;2023-02-15T18:55:46;1.00;99.90
25046;DHT22;13044;49.304;12.840;2023-02-15T18:58:20;1.00;99.90
25046;DHT22;13044;49.304;12.840;2023-02-15T19:00:49;0.90;99.90
25046;DHT22;13044;49.304;12.840;2023-02-15T19:03:17;0.90;99.90
25046;DHT22;13044;49.304;12.840;2023-02-15T19:05:46;0.90;99.90
25046;DHT22;13044;49.304;12.840;2023-02-15T19:08:22;1.00;99.90
25046;DHT22;13044;49.304;12.840;2023-02-15T19:10:51;1.00;99.90
25046;DHT22;13044;49.304;12.840;2023-02-15T19:13:19;0.90;99.90
25046;DHT22;13044;49.304;12.840;2023-02-15T19:15:46;0.90;99.90
25046;DHT22;13044;49.304;12.840;2023-02-15T19:18:14;0.90;99.90
25046;DHT22;13044;49.304;12.840;2023-02-15T19:20:43;0.80;99.90
25046;DHT22;13044;49.304;12.840;2023-02-15T19:23:15;0.70;99.90
25046;DHT22;13044;49.304;12.840;2023-02-15T19:25:45;0.70;99.90
25046;DHT22;13044;49.304;12.840;2023-02-15T19:28:20;0.70;99.90
25046;DHT22;13044;49.304;12.840;2023-02-15T19:30:56;0.60;99.90
25046;DHT22;13044;49.304;12.840;2023-02-15T19:33:22;0.60;99.90
25046;DHT22;13044;49.304;12.840;2023-02-15T19:35:52;0.60;99.90
25046;DHT22;13044;49.304;12.840;2023-02-15T19:38:26;0.50;99.90
25046;DHT22;13044;49.304;12.840;2023-02-15T19:41:00;0.50;99.90
25046;DHT22;13044;49.304;12.840;2023-02-15T19:43:31;0.50;99.90
25046;DHT22;13044;49.304;12.840;2023-02-15T19:46:00;0.50;99.90
25046;DHT22;13044;49.304;12.840;2023-02-15T19:48:27;0.50;99.90
25046;DHT22;13044;49.304;12.840;2023-02-15T19:50:54;0.50;99.90
25046;DHT22;13044;49.304;12.840;2023-02-15T19:53:24;0.50;99.90